createdAt,value
2022-12-23T00:00:39.117Z,100194.75
2022-12-23T00:03:06.163Z,100184.34
2022-12-23T00:05:38.079Z,100184.31
2022-12-23T00:08:06.260Z,100187.81
2022-12-23T00:10:33.335Z,100184.06
2022-12-23T00:13:18.867Z,100180.75
2022-12-23T00:15:45.716Z,100174.75
2022-12-23T00:18:12.608Z,100178.19
2022-12-23T00:20:39.530Z,100165.16
2022-12-23T00:23:06.789Z,100160.69
2022-12-23T00:25:41.179Z,100158.13
2022-12-23T00:28:11.892Z,100152.69
2022-12-23T00:30:52.195Z,100143.22
2022-12-23T00:33:22.714Z,100153.81
2022-12-23T00:35:50.582Z,100148.44
2022-12-23T00:38:41.924Z,100154.66
2022-12-23T00:41:37.761Z,100145.97
2022-12-23T00:44:05.408Z,100145.97
2022-12-23T00:46:33.052Z,100145.06
2022-12-23T00:49:18.849Z,100146.00
2022-12-23T00:51:45.904Z,100141.66
2022-12-23T00:54:12.835Z,100143.38
2022-12-23T00:56:39.855Z,100135.53
2022-12-23T00:59:07.094Z,100144.22
2022-12-23T01:01:52.495Z,100140.72
2022-12-23T01:04:38.815Z,100143.25
2022-12-23T01:07:06.659Z,100145.94
2022-12-23T01:09:34.668Z,100146.84
2022-12-23T01:12:02.205Z,100139.03
2022-12-23T01:14:29.376Z,100136.41
2022-12-23T01:16:56.314Z,100139.91
2022-12-23T01:19:23.474Z,100129.47
2022-12-23T01:21:50.417Z,100112.88
2022-12-23T01:24:17.335Z,100119.84
2022-12-23T01:26:44.207Z,100123.31
2022-12-23T01:29:12.077Z,100112.88
2022-12-23T01:31:39.066Z,100118.13
2022-12-23T01:34:06.058Z,100100.69
2022-12-23T01:36:32.990Z,100094.91
2022-12-23T01:38:59.895Z,100092.72
2022-12-23T01:41:48.967Z,100093.00
2022-12-23T01:45:13.097Z,100081.00
2022-12-23T01:48:03.658Z,100090.69
2022-12-23T01:50:38.395Z,100108.00
2022-12-23T01:53:30.448Z,100098.59
2022-12-23T01:56:07.949Z,100109.94
2022-12-23T01:58:37.723Z,100093.44
2022-12-23T02:01:24.208Z,100097.81
2022-12-23T02:03:54.816Z,100090.84
2022-12-23T02:06:47.387Z,100102.91
2022-12-23T02:09:19.897Z,100097.87
2022-12-23T02:12:21.662Z,100093.41
2022-12-23T02:15:16.052Z,100089.88
2022-12-23T02:18:21.335Z,100078.38
2022-12-23T02:21:13.014Z,100088.94
2022-12-23T02:24:17.386Z,100099.53
2022-12-23T02:26:59.483Z,100108.34
2022-12-23T02:29:51.120Z,100103.16
2022-12-23T02:32:21.144Z,100099.66
2022-12-23T02:34:56.778Z,100092.59
2022-12-23T02:37:34.848Z,100087.44
2022-12-23T02:40:01.708Z,100101.44
2022-12-23T02:42:37.028Z,100087.44
2022-12-23T02:45:12.763Z,100084.87
2022-12-23T02:47:55.837Z,100079.66
2022-12-23T02:50:30.066Z,100085.63
2022-12-23T02:53:04.169Z,100083.69
2022-12-23T02:55:36.086Z,100091.19
2022-12-23T02:58:08.579Z,100091.37
2022-12-23T03:00:38.632Z,100082.69
2022-12-23T03:03:05.813Z,100092.28
2022-12-23T03:05:43.009Z,100100.16
2022-12-23T03:08:34.855Z,100108.09
2022-12-23T03:11:17.497Z,100099.53
2022-12-23T03:14:15.817Z,100100.34
2022-12-23T03:17:14.064Z,100093.50
2022-12-23T03:19:54.045Z,100095.16
2022-12-23T03:22:37.191Z,100093.53
2022-12-23T03:25:24.591Z,100094.25
2022-12-23T03:28:23.001Z,100086.44
2022-12-23T03:30:55.204Z,100089.09
2022-12-23T03:33:27.961Z,100083.84
2022-12-23T03:36:03.625Z,100084.75
2022-12-23T03:38:33.791Z,100075.16
2022-12-23T03:41:08.085Z,100074.28
2022-12-23T03:43:51.413Z,100068.03
2022-12-23T03:46:22.566Z,100067.37
2022-12-23T03:48:54.540Z,100070.41
2022-12-23T03:51:26.427Z,100068.91
2022-12-23T03:54:01.927Z,100069.81
2022-12-23T03:56:33.357Z,100066.16
2022-12-23T03:59:06.306Z,100061.84
2022-12-23T04:02:01.309Z,100058.88
2022-12-23T04:04:39.830Z,100057.22
2022-12-23T04:07:22.256Z,100053.87
2022-12-23T04:09:51.530Z,100047.28
2022-12-23T04:12:19.296Z,100048.72
2022-12-23T04:14:51.345Z,100040.19
2022-12-23T04:17:20.794Z,100042.72
2022-12-23T04:19:53.603Z,100033.31
2022-12-23T04:22:20.721Z,100041.19
2022-12-23T04:24:47.688Z,100038.06
2022-12-23T04:27:16.086Z,100039.28
2022-12-23T04:29:44.228Z,100030.91
2022-12-23T04:32:11.401Z,100030.31
2022-12-23T04:34:38.357Z,100038.56
2022-12-23T04:37:05.245Z,100035.00
2022-12-23T04:39:32.145Z,100022.97
2022-12-23T04:41:59.076Z,100017.03
2022-12-23T04:44:25.969Z,100007.38
2022-12-23T04:46:53.083Z,100003.19
2022-12-23T04:49:20.078Z,99982.03
2022-12-23T04:51:47.098Z,99982.56
2022-12-23T04:54:14.135Z,99996.19
2022-12-23T04:56:41.102Z,100020.84
2022-12-23T04:59:07.940Z,100030.87
2022-12-23T05:01:34.911Z,100002.69
2022-12-23T05:04:01.997Z,100025.91
2022-12-23T05:06:28.827Z,100010.69
2022-12-23T05:08:55.777Z,100004.62
2022-12-23T05:11:22.743Z,99999.72
2022-12-23T05:13:49.597Z,100000.44
2022-12-23T05:16:16.544Z,100003.28
2022-12-23T05:18:43.574Z,100010.94
2022-12-23T05:21:10.497Z,100003.50
2022-12-23T05:23:37.697Z,100007.06
2022-12-23T05:26:04.869Z,100013.78
2022-12-23T05:28:32.004Z,100019.41
2022-12-23T05:31:01.100Z,100018.69
2022-12-23T05:33:28.680Z,100011.59
2022-12-23T05:35:56.126Z,100010.50
2022-12-23T05:38:23.515Z,100008.56
2022-12-23T05:40:50.754Z,100004.81
2022-12-23T05:43:18.526Z,100008.62
2022-12-23T05:45:46.027Z,100008.19
2022-12-23T05:48:13.688Z,100002.94
2022-12-23T05:50:41.977Z,100013.34
2022-12-23T05:53:14.018Z,100005.88
2022-12-23T05:55:41.032Z,99996.28
2022-12-23T05:58:08.125Z,99991.53
2022-12-23T06:00:35.099Z,100005.09
2022-12-23T06:03:02.256Z,100005.47
2022-12-23T06:05:29.516Z,100008.19
2022-12-23T06:07:56.436Z,100008.12
2022-12-23T06:10:23.409Z,100008.78
2022-12-23T06:12:50.389Z,100009.75
2022-12-23T06:15:17.271Z,99996.34
2022-12-23T06:17:44.154Z,100003.50
2022-12-23T06:20:19.642Z,99994.84
2022-12-23T06:22:50.252Z,100007.13
2022-12-23T06:25:17.487Z,100016.13
2022-12-23T06:27:44.835Z,100022.47
2022-12-23T06:30:16.242Z,100027.44
2022-12-23T06:32:43.142Z,100017.75
2022-12-23T06:35:10.347Z,100014.16
2022-12-23T06:37:37.307Z,100021.75
2022-12-23T06:40:04.615Z,100026.97
2022-12-23T06:42:32.597Z,100022.09
2022-12-23T06:44:59.843Z,100019.13
2022-12-23T06:47:27.177Z,100021.09
2022-12-23T06:49:55.049Z,100028.75
2022-12-23T06:52:23.259Z,100023.13
2022-12-23T06:54:50.178Z,100024.56
2022-12-23T06:57:17.143Z,100022.09
2022-12-23T06:59:44.136Z,100020.19
2022-12-23T07:02:12.037Z,100017.38
2022-12-23T07:04:39.429Z,100017.03
2022-12-23T07:07:06.345Z,100010.72
2022-12-23T07:09:33.166Z,100013.81
2022-12-23T07:12:00.004Z,100000.13
2022-12-23T07:14:26.952Z,100008.41
2022-12-23T07:16:54.388Z,100005.69
2022-12-23T07:19:21.372Z,100009.25
2022-12-23T07:21:48.282Z,100011.13
2022-12-23T07:24:15.158Z,100005.31
2022-12-23T07:26:42.030Z,99999.41
2022-12-23T07:29:08.985Z,99996.53
2022-12-23T07:31:40.609Z,100005.28
2022-12-23T07:34:07.999Z,100008.88
2022-12-23T07:36:34.986Z,100013.72
2022-12-23T07:39:01.935Z,100026.31
2022-12-23T07:41:31.180Z,100019.66
2022-12-23T07:43:58.548Z,100028.56
2022-12-23T07:46:25.492Z,100025.69
2022-12-23T07:48:52.443Z,100018.84
2022-12-23T07:51:19.433Z,100016.16
2022-12-23T07:53:50.929Z,100002.66
2022-12-23T07:56:18.934Z,100014.50
2022-12-23T07:58:52.721Z,100018.78
2022-12-23T08:01:20.780Z,100019.00
2022-12-23T08:03:48.083Z,100033.63
2022-12-23T08:06:16.288Z,100030.50
2022-12-23T08:08:45.094Z,100018.09
2022-12-23T08:11:13.259Z,100017.69
2022-12-23T08:13:42.185Z,100032.63
2022-12-23T08:16:10.260Z,100031.13
2022-12-23T08:18:38.944Z,100026.47
2022-12-23T08:21:13.344Z,100019.06
2022-12-23T08:23:40.583Z,99999.06
2022-12-23T08:26:16.859Z,99998.28
2022-12-23T08:28:44.926Z,100006.00
2022-12-23T08:31:34.128Z,100009.03
2022-12-23T08:34:01.802Z,100003.69
2022-12-23T08:36:31.752Z,99999.38
2022-12-23T08:39:01.416Z,99992.41
2022-12-23T08:41:31.611Z,99992.22
2022-12-23T08:43:58.819Z,99996.97
2022-12-23T08:46:26.757Z,99992.13
2022-12-23T08:48:54.255Z,99981.84
2022-12-23T08:51:23.456Z,99970.37
2022-12-23T08:53:56.185Z,99972.19
2022-12-23T08:56:29.727Z,99975.03
2022-12-23T08:58:57.233Z,99979.38
2022-12-23T09:01:27.293Z,99968.97
2022-12-23T09:03:55.191Z,99966.44
2022-12-23T09:06:29.985Z,99965.53
2022-12-23T09:08:58.126Z,99975.12
2022-12-23T09:11:28.465Z,99976.00
2022-12-23T09:13:56.781Z,99999.47
2022-12-23T09:16:23.932Z,99995.03
2022-12-23T09:18:50.882Z,99989.75
2022-12-23T09:21:20.661Z,99995.06
2022-12-23T09:23:48.607Z,99988.06
2022-12-23T09:26:26.592Z,99986.44
2022-12-23T09:28:53.825Z,99975.12
2022-12-23T09:31:21.865Z,99968.16
2022-12-23T09:33:51.337Z,99976.84
2022-12-23T09:36:18.697Z,99963.72
2022-12-23T09:38:45.567Z,99981.09
2022-12-23T09:41:19.755Z,99956.31
2022-12-23T09:43:58.631Z,99959.41
2022-12-23T09:46:29.959Z,99959.56
2022-12-23T09:49:09.457Z,99960.12
2022-12-23T09:51:36.409Z,99953.50
2022-12-23T09:54:03.218Z,99945.91
2022-12-23T09:56:48.813Z,99940.78
2022-12-23T09:59:28.375Z,99940.69
2022-12-23T10:01:55.238Z,99930.84
2022-12-23T10:05:05.890Z,99922.66
2022-12-23T10:07:35.779Z,99920.56
2022-12-23T10:10:22.651Z,99911.03
2022-12-23T10:12:53.196Z,99906.16
2022-12-23T10:15:31.446Z,99892.38
2022-12-23T10:18:04.094Z,99893.72
2022-12-23T10:20:41.937Z,99895.53
2022-12-23T10:23:17.879Z,99898.50
2022-12-23T10:25:51.273Z,99897.16
2022-12-23T10:28:18.605Z,99900.38
2022-12-23T10:31:23.973Z,99899.81
2022-12-23T10:34:00.623Z,99893.00
2022-12-23T10:36:50.170Z,99888.84
2022-12-23T10:39:38.498Z,99893.78
2022-12-23T10:42:29.137Z,99893.28
2022-12-23T10:45:29.089Z,99879.78
2022-12-23T10:48:08.624Z,99881.19
2022-12-23T10:50:48.806Z,99877.84
2022-12-23T10:53:29.124Z,99868.03
2022-12-23T10:55:57.526Z,99886.87
2022-12-23T10:58:25.769Z,99880.19
2022-12-23T11:00:57.080Z,99867.78
2022-12-23T11:03:34.580Z,99858.28
2022-12-23T11:06:02.389Z,99849.44
2022-12-23T11:08:31.594Z,99851.59
2022-12-23T11:11:00.930Z,99857.25
2022-12-23T11:13:40.146Z,99851.34
2022-12-23T11:16:26.868Z,99852.16
2022-12-23T11:19:01.655Z,99851.03
2022-12-23T11:21:30.021Z,99846.88
2022-12-23T11:24:10.279Z,99841.50
2022-12-23T11:26:37.357Z,99838.28
2022-12-23T11:29:12.071Z,99827.78
2022-12-23T11:31:39.786Z,99818.31
2022-12-23T11:34:14.868Z,99821.69
2022-12-23T11:36:42.136Z,99825.09
2022-12-23T11:39:24.543Z,99836.59
2022-12-23T11:41:55.413Z,99839.88
2022-12-23T11:44:31.109Z,99840.72
2022-12-23T11:46:58.736Z,99834.31
2022-12-23T11:49:33.965Z,99836.81
2022-12-23T11:52:02.715Z,99844.28
2022-12-23T11:54:30.370Z,99831.00
2022-12-23T11:56:59.355Z,99834.66
2022-12-23T11:59:35.302Z,99827.41
2022-12-23T12:02:26.696Z,99843.66
2022-12-23T12:05:02.548Z,99837.06
2022-12-23T12:07:31.076Z,99838.25
2022-12-23T12:10:00.453Z,99837.28
2022-12-23T12:12:29.435Z,99829.59
2022-12-23T12:14:59.396Z,99841.75
2022-12-23T12:17:45.414Z,99828.28
2022-12-23T12:20:14.716Z,99824.66
2022-12-23T12:22:56.702Z,99832.56
2022-12-23T12:25:41.435Z,99817.03
2022-12-23T12:28:15.248Z,99834.28
2022-12-23T12:30:49.435Z,99841.53
2022-12-23T12:33:22.417Z,99840.66
2022-12-23T12:36:05.110Z,99845.34
2022-12-23T12:38:33.687Z,99852.12
2022-12-23T12:41:19.096Z,99846.41
2022-12-23T12:43:55.928Z,99844.78
2022-12-23T12:46:31.820Z,99846.72
2022-12-23T12:49:24.866Z,99863.81
2022-12-23T12:52:03.025Z,99856.78
2022-12-23T12:54:40.038Z,99845.22
2022-12-23T12:57:14.819Z,99848.94
2022-12-23T12:59:42.985Z,99857.56
2022-12-23T13:02:50.391Z,99855.13
2022-12-23T13:05:38.465Z,99867.56
2022-12-23T13:08:28.615Z,99862.84
2022-12-23T13:11:24.937Z,99864.53
2022-12-23T13:14:01.066Z,99860.97
2022-12-23T13:16:46.399Z,99857.00
2022-12-23T13:19:30.808Z,99852.97
2022-12-23T13:22:06.847Z,99853.69
2022-12-23T13:25:05.767Z,99861.75
2022-12-23T13:27:44.493Z,99867.69
2022-12-23T13:30:20.474Z,99863.87
2022-12-23T13:33:20.512Z,99854.50
2022-12-23T13:36:08.127Z,99867.62
2022-12-23T13:38:57.315Z,99858.94
2022-12-23T13:41:39.422Z,99848.06
2022-12-23T13:44:10.023Z,99856.41
2022-12-23T13:47:21.812Z,99855.84
2022-12-23T13:50:24.020Z,99853.53
2022-12-23T13:53:06.643Z,99863.66
2022-12-23T13:55:54.841Z,99857.88
2022-12-23T13:58:27.314Z,99854.16
2022-12-23T14:01:09.377Z,99856.59
2022-12-23T14:03:40.415Z,99855.19
2022-12-23T14:06:25.504Z,99855.38
2022-12-23T14:08:55.324Z,99853.78
2022-12-23T14:11:28.058Z,99872.75
2022-12-23T14:13:59.456Z,99863.22
2022-12-23T14:16:47.723Z,99857.72
2022-12-23T14:19:42.935Z,99852.50
2022-12-23T14:22:34.636Z,99857.22
2022-12-23T14:25:33.531Z,99861.97
2022-12-23T14:28:26.415Z,99869.06
2022-12-23T14:30:53.523Z,99866.91
2022-12-23T14:33:23.329Z,99874.50
2022-12-23T14:35:51.676Z,99876.78
2022-12-23T14:38:31.548Z,99879.72
2022-12-23T14:41:25.454Z,99879.69
2022-12-23T14:43:56.282Z,99881.88
2022-12-23T14:46:35.285Z,99876.50
2022-12-23T14:49:36.790Z,99889.53
2022-12-23T14:51:51.197Z,99871.03
2022-12-23T14:54:37.668Z,99879.63
2022-12-23T14:57:17.798Z,99874.16
2022-12-23T14:59:51.670Z,99887.75
2022-12-23T15:02:39.450Z,99876.69
2022-12-23T15:05:07.873Z,99885.38
2022-12-23T15:07:44.516Z,99881.84
2022-12-23T15:10:18.922Z,99882.41
2022-12-23T15:12:56.616Z,99883.38
2022-12-23T15:15:27.031Z,99891.88
2022-12-23T15:18:05.207Z,99884.44
2022-12-23T15:20:35.440Z,99877.59
2022-12-23T15:23:08.609Z,99881.22
2022-12-23T15:25:40.894Z,99892.09
2022-12-23T15:28:18.351Z,99879.69
2022-12-23T15:30:50.069Z,99901.41
2022-12-23T15:34:00.646Z,99898.75
2022-12-23T15:36:10.699Z,99897.28
2022-12-23T15:38:39.332Z,99893.03
2022-12-23T15:41:15.156Z,99893.94
2022-12-23T15:43:43.178Z,99887.66
2022-12-23T15:46:16.734Z,99898.31
2022-12-23T15:48:43.848Z,99896.22
2022-12-23T15:51:49.475Z,99909.84
2022-12-23T15:54:08.908Z,99906.28
2022-12-23T15:56:40.231Z,99898.28
2022-12-23T15:59:24.128Z,99891.97
2022-12-23T16:01:51.261Z,99881.13
2022-12-23T16:04:22.436Z,99873.72
2022-12-23T16:06:50.790Z,99864.53
2022-12-23T16:09:19.439Z,99860.06
2022-12-23T16:11:56.606Z,99850.03
2022-12-23T16:14:40.369Z,99847.22
2022-12-23T16:17:10.209Z,99856.50
2022-12-23T16:19:42.992Z,99864.37
2022-12-23T16:22:25.598Z,99861.81
2022-12-23T16:25:17.238Z,99861.69
2022-12-23T16:27:48.816Z,99867.59
2022-12-23T16:30:21.816Z,99868.03
2022-12-23T16:32:54.618Z,99866.25
2022-12-23T16:35:30.455Z,99865.59
2022-12-23T16:38:26.701Z,99862.28
2022-12-23T16:40:57.505Z,99873.34
2022-12-23T16:43:25.682Z,99869.03
2022-12-23T16:45:57.132Z,99868.28
2022-12-23T16:48:29.838Z,99860.34
2022-12-23T16:50:57.972Z,99863.25
2022-12-23T16:53:24.857Z,99861.63
2022-12-23T16:55:56.785Z,99867.75
2022-12-23T16:58:26.987Z,99881.16
2022-12-23T17:00:54.050Z,99880.50
2022-12-23T17:03:21.323Z,99882.00
2022-12-23T17:05:48.925Z,99885.25
2022-12-23T17:08:16.000Z,99885.97
2022-12-23T17:10:47.227Z,99880.44
2022-12-23T17:13:18.076Z,99886.50
2022-12-23T17:15:45.665Z,99886.25
2022-12-23T17:18:14.593Z,99893.22
2022-12-23T17:20:43.436Z,99899.16
2022-12-23T17:23:29.481Z,99898.38
2022-12-23T17:25:56.481Z,99900.69
2022-12-23T17:28:25.737Z,99895.31
2022-12-23T17:30:55.405Z,99888.16
2022-12-23T17:33:26.715Z,99901.19
2022-12-23T17:35:53.728Z,99897.53
2022-12-23T17:38:20.587Z,99888.69
2022-12-23T17:40:49.121Z,99885.81
2022-12-23T17:43:18.396Z,99883.22
2022-12-23T17:45:46.095Z,99873.00
2022-12-23T17:48:20.576Z,99877.19
2022-12-23T17:50:49.412Z,99880.59
2022-12-23T17:53:18.612Z,99881.41
2022-12-23T17:55:46.472Z,99881.50
2022-12-23T17:58:14.472Z,99873.72
2022-12-23T18:00:41.816Z,99868.47
2022-12-23T18:03:23.424Z,99868.41
2022-12-23T18:05:55.663Z,99867.22
2022-12-23T18:08:27.900Z,99862.28
2022-12-23T18:10:54.921Z,99864.03
2022-12-23T18:13:21.933Z,99864.56
2022-12-23T18:15:50.174Z,99866.72
2022-12-23T18:18:28.983Z,99862.88
2022-12-23T18:21:01.059Z,99866.56
2022-12-23T18:23:31.542Z,99868.59
2022-12-23T18:26:00.898Z,99866.88
2022-12-23T18:28:32.148Z,99867.41
2022-12-23T18:30:59.306Z,99870.16
2022-12-23T18:33:28.995Z,99865.50
2022-12-23T18:35:56.458Z,99880.22
2022-12-23T18:38:23.414Z,99875.00
2022-12-23T18:40:54.050Z,99863.28
2022-12-23T18:43:24.264Z,99863.25
2022-12-23T18:45:53.571Z,99872.91
2022-12-23T18:48:20.617Z,99867.47
2022-12-23T18:50:47.452Z,99875.28
2022-12-23T18:53:23.346Z,99875.19
2022-12-23T18:55:51.663Z,99873.53
2022-12-23T18:58:18.994Z,99866.19
2022-12-23T19:00:47.895Z,99863.63
2022-12-23T19:03:23.301Z,99870.66
2022-12-23T19:05:52.156Z,99884.94
2022-12-23T19:08:26.261Z,99883.12
2022-12-23T19:10:55.944Z,99898.22
2022-12-23T19:13:23.481Z,99901.81
2022-12-23T19:15:50.680Z,99896.56
2022-12-23T19:18:20.427Z,99890.97
2022-12-23T19:20:49.012Z,99885.88
2022-12-23T19:23:16.499Z,99890.38
2022-12-23T19:25:52.500Z,99898.38
2022-12-23T19:28:22.519Z,99894.34
2022-12-23T19:30:49.696Z,99890.28
2022-12-23T19:33:17.133Z,99885.50
2022-12-23T19:35:44.588Z,99896.06
2022-12-23T19:38:12.648Z,99892.03
2022-12-23T19:40:40.262Z,99883.41
2022-12-23T19:43:07.604Z,99883.03
2022-12-23T19:45:34.620Z,99884.59
2022-12-23T19:48:01.554Z,99888.38
2022-12-23T19:50:28.538Z,99890.56
2022-12-23T19:52:56.632Z,99888.63
2022-12-23T19:55:23.820Z,99889.88
2022-12-23T19:57:51.874Z,99886.81
2022-12-23T20:00:18.964Z,99886.84
2022-12-23T20:02:45.873Z,99885.31
2022-12-23T20:05:12.840Z,99881.41
2022-12-23T20:07:39.764Z,99878.94
2022-12-23T20:10:08.485Z,99891.12
2022-12-23T20:12:35.356Z,99883.03
2022-12-23T20:15:02.313Z,99870.59
2022-12-23T20:17:29.224Z,99883.78
2022-12-23T20:19:56.147Z,99879.34
2022-12-23T20:22:23.076Z,99876.72
2022-12-23T20:24:50.086Z,99870.47
2022-12-23T20:27:20.137Z,99868.44
2022-12-23T20:29:49.693Z,99864.28
2022-12-23T20:32:16.585Z,99877.50
2022-12-23T20:34:43.473Z,99866.69
2022-12-23T20:37:11.926Z,99865.50
2022-12-23T20:39:38.877Z,99863.37
2022-12-23T20:42:05.792Z,99861.53
2022-12-23T20:44:35.108Z,99864.00
2022-12-23T20:47:03.409Z,99864.81
2022-12-23T20:49:30.438Z,99859.34
2022-12-23T20:51:57.464Z,99859.44
2022-12-23T20:54:31.675Z,99846.41
2022-12-23T20:57:00.265Z,99846.06
2022-12-23T20:59:27.173Z,99839.72
2022-12-23T21:01:54.111Z,99839.91
2022-12-23T21:04:22.845Z,99832.50
2022-12-23T21:06:50.264Z,99826.88
2022-12-23T21:09:17.810Z,99830.28
2022-12-23T21:11:46.997Z,99836.13
2022-12-23T21:14:15.607Z,99837.28
2022-12-23T21:16:43.021Z,99831.81
2022-12-23T21:19:18.419Z,99838.00
2022-12-23T21:21:46.047Z,99833.75
2022-12-23T21:24:13.869Z,99833.44
2022-12-23T21:26:41.095Z,99822.09
2022-12-23T21:29:10.573Z,99828.00
2022-12-23T21:31:39.806Z,99830.03
2022-12-23T21:34:07.979Z,99828.31
2022-12-23T21:36:38.051Z,99826.47
2022-12-23T21:39:06.499Z,99824.81
2022-12-23T21:41:39.286Z,99823.31
2022-12-23T21:44:06.554Z,99822.53
2022-12-23T21:46:33.859Z,99817.16
2022-12-23T21:49:00.936Z,99820.97
2022-12-23T21:51:38.528Z,99801.81
2022-12-23T21:54:07.076Z,99812.03
2022-12-23T21:56:34.260Z,99808.34
2022-12-23T21:59:04.101Z,99804.25
2022-12-23T22:01:30.997Z,99802.97
2022-12-23T22:03:58.484Z,99801.09
2022-12-23T22:06:37.631Z,99793.88
2022-12-23T22:09:08.298Z,99792.00
2022-12-23T22:11:36.844Z,99800.38
2022-12-23T22:14:05.787Z,99787.31
2022-12-23T22:16:34.251Z,99786.16
2022-12-23T22:19:02.064Z,99781.31
2022-12-23T22:21:31.132Z,99776.41
2022-12-23T22:23:59.057Z,99781.81
2022-12-23T22:26:28.934Z,99782.94
2022-12-23T22:28:56.419Z,99785.53
2022-12-23T22:31:46.231Z,99787.06
2022-12-23T22:34:14.628Z,99800.25
2022-12-23T22:36:41.778Z,99785.34
